Zprávy METAR z letišť v České republice


LKPR - Praha Ruzyně, Česká republika
Aktualizováno: 06.07.2020 22:00
 
Teplota vzduchu: 14°C
Vítr: NW 24 km/h
Rosný bod: 6°C
Vlhkost vzduchu: 59%
Tlak vzduchu: 1017 hPa
Stav počasí: Clear
Viditelnost: greater than 10 km
2020/07/06 20:00 LKPR 062000Z 31013KT CAVOK 14/06 Q1017 NOSIG
LKTB - Brno Tuřany, Česká republika
Aktualizováno: 06.07.2020 22:00
 
Teplota vzduchu: 21°C
Vítr: NNW 20 km/h
Rosný bod: 8°C
Vlhkost vzduchu: 43%
Tlak vzduchu: 1014 hPa
Oblačnost: Few Clouds
Viditelnost: 10 km
Detaily oblačnosti: Few Clouds 1433 m
2020/07/06 20:00 LKTB 062000Z 34011KT 9999 FEW047 21/08 Q1014 NOSIG
 
LKKV - Karlovy Vary, Česká republika
Aktualizováno: 06.07.2020 22:00
 
Teplota vzduchu: 12°C
Vítr: W 19 km/h
Rosný bod: 5°C
Vlhkost vzduchu: 63%
Tlak vzduchu: 1018 hPa
Stav počasí: Clear
Viditelnost: greater than 10 km
2020/07/06 20:00 LKKV 062000Z 27010KT 230V290 CAVOK 12/05 Q1018
LKMT - Ostrava Mošnov, Česká republika
Aktualizováno: 06.07.2020 22:00
 
Teplota vzduchu: 18°C
Vítr: N 9 km/h
Rosný bod: 17°C
Vlhkost vzduchu: 94%
Tlak vzduchu: 1012 hPa
Stav počasí: Clear
Viditelnost: greater than 10 km
2020/07/06 20:00 LKMT 062000Z 35005KT 320V050 CAVOK 18/17 Q1012 NOSIG
 
LKPD - Pardubice, Česká republika
Aktualizováno: 06.07.2020 22:00
 
Teplota vzduchu: 17°C
Vítr: SW 9 km/h
Rosný bod: 8°C
Vlhkost vzduchu: 56%
Tlak vzduchu: 1015 hPa
Stav počasí: Clear
Viditelnost: greater than 10 km
2020/07/06 20:00 LKPD 062000Z 22005KT CAVOK 17/08 Q1015 NOSIG
LKKB - Praha Kbely, Česká republika
Aktualizováno: 06.07.2020 22:00
 
Teplota vzduchu: 16°C
Vítr: WNW 26 km/h
Rosný bod: 6°C
Vlhkost vzduchu: 52%
Tlak vzduchu: 1016 hPa
Stav počasí: Clear
Viditelnost: greater than 10 km
2020/07/06 20:00 LKKB 062000Z 30014KT 270V330 CAVOK 16/06 Q1016 NOSIG
 
LKCV - Čáslav, Česká republika
Aktualizováno: 06.07.2020 22:00
 
Teplota vzduchu: 15°C
Vítr: WSW 11 km/h
Rosný bod: 9°C
Vlhkost vzduchu: 68%
Tlak vzduchu: 1015 hPa
Stav počasí: Clear
Viditelnost: greater than 10 km
2020/07/06 20:00 LKCV 062000Z 24006KT CAVOK 15/09 Q1015 NOSIG
LKNA - Náměšť n. Osl., Česká republika
Aktualizováno: 06.07.2020 22:00
 
Teplota vzduchu: 18°C
Vítr: NW 20 km/h
Rosný bod: 7°C
Vlhkost vzduchu: 49%
Tlak vzduchu: 1015 hPa
Stav počasí: Clear
Viditelnost: greater than 10 km
2020/07/06 20:00 LKNA 062000Z 32011KT CAVOK 18/07 Q1015 NOSIG
 
LKLN - Plzeň Líně, Česká republika
Aktualizováno: 06.07.2020 22:00
 
Teplota vzduchu: 16°C
Vítr: varies 11 km/h
Rosný bod: 5°C
Vlhkost vzduchu: 48%
Tlak vzduchu: 1018 hPa
Oblačnost: Few Clouds
Viditelnost: 10 km
Detaily oblačnosti: Few Clouds 2103 m
2020/07/06 20:00 LKLN 062000Z AUTO VRB06KT 9999 FEW069 16/05 Q1018
LKVO - Vodochody, Česká republika
Aktualizováno: 06.07.2020 16:00
Není aktuální
 
Teplota vzduchu: 23°C
Vítr: NW 19 km/h
Rosný bod: 7°C
Vlhkost vzduchu: 36%
Tlak vzduchu: 1011 hPa
Stav počasí: Clear
Viditelnost: greater than 10 km
2020/07/06 14:00 LKVO 061400Z 32010KT 280V0580 CAVOK 23/07 Q1011

Metar display script od Saratoga-Weather.org
upravil a přeložil Miloš Jiřík